sensor_id;sensor_type;location;lat;lon;timestamp;P1;durP1;ratioP1;P2;durP2;ratioP2
15681;SDS011;7941;50.966;6.978;2022-07-19T00:01:46;6.50;;;4.80;;
15681;SDS011;7941;50.966;6.978;2022-07-19T00:04:12;6.00;;;5.03;;
15681;SDS011;7941;50.966;6.978;2022-07-19T00:06:38;9.47;;;6.13;;
15681;SDS011;7941;50.966;6.978;2022-07-19T00:09:04;5.67;;;4.30;;
15681;SDS011;7941;50.966;6.978;2022-07-19T00:11:31;5.43;;;4.80;;
15681;SDS011;7941;50.966;6.978;2022-07-19T00:13:58;7.90;;;7.10;;
15681;SDS011;7941;50.966;6.978;2022-07-19T00:16:24;7.27;;;5.67;;
15681;SDS011;7941;50.966;6.978;2022-07-19T00:18:50;5.60;;;5.07;;
15681;SDS011;7941;50.966;6.978;2022-07-19T00:21:16;6.37;;;4.57;;
15681;SDS011;7941;50.966;6.978;2022-07-19T00:23:42;5.20;;;4.60;;
15681;SDS011;7941;50.966;6.978;2022-07-19T00:26:08;5.30;;;4.50;;
15681;SDS011;7941;50.966;6.978;2022-07-19T00:28:35;7.50;;;4.20;;
15681;SDS011;7941;50.966;6.978;2022-07-19T00:31:01;5.77;;;4.60;;
15681;SDS011;7941;50.966;6.978;2022-07-19T00:33:27;6.27;;;4.90;;
15681;SDS011;7941;50.966;6.978;2022-07-19T00:35:53;7.80;;;4.40;;
15681;SDS011;7941;50.966;6.978;2022-07-19T00:38:19;5.43;;;4.00;;
15681;SDS011;7941;50.966;6.978;2022-07-19T00:40:45;5.13;;;4.10;;
15681;SDS011;7941;50.966;6.978;2022-07-19T00:43:11;5.70;;;4.27;;
15681;SDS011;7941;50.966;6.978;2022-07-19T00:45:37;7.77;;;4.50;;
15681;SDS011;7941;50.966;6.978;2022-07-19T00:48:04;7.17;;;4.70;;
15681;SDS011;7941;50.966;6.978;2022-07-19T00:50:31;6.23;;;3.93;;
15681;SDS011;7941;50.966;6.978;2022-07-19T00:52:59;9.43;;;5.47;;
15681;SDS011;7941;50.966;6.978;2022-07-19T00:55:27;9.57;;;5.43;;
15681;SDS011;7941;50.966;6.978;2022-07-19T00:57:57;6.43;;;5.07;;
15681;SDS011;7941;50.966;6.978;2022-07-19T01:00:24;7.27;;;4.73;;
15681;SDS011;7941;50.966;6.978;2022-07-19T01:02:50;6.33;;;4.40;;
15681;SDS011;7941;50.966;6.978;2022-07-19T01:05:17;4.30;;;3.90;;
15681;SDS011;7941;50.966;6.978;2022-07-19T01:07:43;4.60;;;3.93;;
15681;SDS011;7941;50.966;6.978;2022-07-19T01:10:10;6.03;;;4.37;;
15681;SDS011;7941;50.966;6.978;2022-07-19T01:12:37;4.43;;;3.90;;
15681;SDS011;7941;50.966;6.978;2022-07-19T01:15:11;6.20;;;4.20;;
15681;SDS011;7941;50.966;6.978;2022-07-19T01:17:38;5.00;;;3.63;;
15681;SDS011;7941;50.966;6.978;2022-07-19T01:20:04;5.40;;;3.70;;
15681;SDS011;7941;50.966;6.978;2022-07-19T01:22:31;6.10;;;4.20;;
15681;SDS011;7941;50.966;6.978;2022-07-19T01:24:57;5.57;;;3.83;;
15681;SDS011;7941;50.966;6.978;2022-07-19T01:27:23;4.87;;;3.97;;
15681;SDS011;7941;50.966;6.978;2022-07-19T01:29:49;5.90;;;4.27;;
15681;SDS011;7941;50.966;6.978;2022-07-19T01:32:15;4.20;;;3.90;;
15681;SDS011;7941;50.966;6.978;2022-07-19T01:34:41;6.97;;;4.10;;
15681;SDS011;7941;50.966;6.978;2022-07-19T01:37:08;9.87;;;4.30;;
15681;SDS011;7941;50.966;6.978;2022-07-19T01:39:34;3.60;;;3.30;;
15681;SDS011;7941;50.966;6.978;2022-07-19T01:42:00;5.03;;;3.57;;
15681;SDS011;7941;50.966;6.978;2022-07-19T01:44:26;3.60;;;3.30;;
15681;SDS011;7941;50.966;6.978;2022-07-19T01:46:52;4.70;;;3.60;;
15681;SDS011;7941;50.966;6.978;2022-07-19T01:49:18;5.10;;;3.90;;
15681;SDS011;7941;50.966;6.978;2022-07-19T01:51:44;5.20;;;3.53;;
15681;SDS011;7941;50.966;6.978;2022-07-19T01:54:10;4.30;;;4.00;;
15681;SDS011;7941;50.966;6.978;2022-07-19T01:56:36;6.20;;;4.00;;
15681;SDS011;7941;50.966;6.978;2022-07-19T01:59:07;4.77;;;3.77;;
15681;SDS011;7941;50.966;6.978;2022-07-19T02:01:33;6.07;;;3.87;;
15681;SDS011;7941;50.966;6.978;2022-07-19T02:03:59;6.23;;;4.10;;
15681;SDS011;7941;50.966;6.978;2022-07-19T02:06:25;4.10;;;3.70;;
15681;SDS011;7941;50.966;6.978;2022-07-19T02:08:52;6.27;;;3.57;;
15681;SDS011;7941;50.966;6.978;2022-07-19T02:11:18;3.50;;;3.20;;
15681;SDS011;7941;50.966;6.978;2022-07-19T02:14:03;6.93;;;3.43;;
15681;SDS011;7941;50.966;6.978;2022-07-19T02:16:30;4.13;;;3.33;;
15681;SDS011;7941;50.966;6.978;2022-07-19T02:18:56;4.10;;;3.20;;
15681;SDS011;7941;50.966;6.978;2022-07-19T02:21:22;4.20;;;3.10;;
15681;SDS011;7941;50.966;6.978;2022-07-19T02:23:48;4.53;;;3.73;;
15681;SDS011;7941;50.966;6.978;2022-07-19T02:26:14;5.63;;;3.10;;
15681;SDS011;7941;50.966;6.978;2022-07-19T02:28:40;5.00;;;3.27;;
15681;SDS011;7941;50.966;6.978;2022-07-19T02:31:06;6.67;;;3.37;;
15681;SDS011;7941;50.966;6.978;2022-07-19T02:33:32;3.40;;;3.10;;
15681;SDS011;7941;50.966;6.978;2022-07-19T02:35:58;7.73;;;3.33;;
15681;SDS011;7941;50.966;6.978;2022-07-19T02:38:25;5.33;;;3.60;;
15681;SDS011;7941;50.966;6.978;2022-07-19T02:40:51;4.13;;;3.70;;
15681;SDS011;7941;50.966;6.978;2022-07-19T02:43:17;7.07;;;3.67;;
15681;SDS011;7941;50.966;6.978;2022-07-19T02:45:43;7.27;;;3.43;;
15681;SDS011;7941;50.966;6.978;2022-07-19T02:48:09;3.50;;;3.17;;
15681;SDS011;7941;50.966;6.978;2022-07-19T02:50:35;6.40;;;3.40;;
15681;SDS011;7941;50.966;6.978;2022-07-19T02:53:02;3.90;;;3.00;;
15681;SDS011;7941;50.966;6.978;2022-07-19T02:55:28;3.63;;;3.20;;
15681;SDS011;7941;50.966;6.978;2022-07-19T02:57:55;5.73;;;2.93;;
15681;SDS011;7941;50.966;6.978;2022-07-19T03:00:21;4.33;;;3.00;;
15681;SDS011;7941;50.966;6.978;2022-07-19T03:02:47;5.50;;;3.37;;
15681;SDS011;7941;50.966;6.978;2022-07-19T03:05:13;4.50;;;3.13;;
15681;SDS011;7941;50.966;6.978;2022-07-19T03:07:39;5.07;;;3.23;;
15681;SDS011;7941;50.966;6.978;2022-07-19T03:10:06;3.37;;;2.80;;
15681;SDS011;7941;50.966;6.978;2022-07-19T03:12:33;3.23;;;2.70;;
15681;SDS011;7941;50.966;6.978;2022-07-19T03:14:59;3.57;;;2.90;;
15681;SDS011;7941;50.966;6.978;2022-07-19T03:17:25;4.77;;;3.10;;
15681;SDS011;7941;50.966;6.978;2022-07-19T03:19:51;3.63;;;3.20;;
15681;SDS011;7941;50.966;6.978;2022-07-19T03:22:18;5.93;;;3.33;;
15681;SDS011;7941;50.966;6.978;2022-07-19T03:24:44;11.67;;;3.00;;
15681;SDS011;7941;50.966;6.978;2022-07-19T03:27:10;3.00;;;2.70;;
15681;SDS011;7941;50.966;6.978;2022-07-19T03:29:36;4.13;;;2.90;;
15681;SDS011;7941;50.966;6.978;2022-07-19T03:32:02;3.17;;;2.80;;
15681;SDS011;7941;50.966;6.978;2022-07-19T03:34:29;3.33;;;3.03;;
15681;SDS011;7941;50.966;6.978;2022-07-19T03:36:55;5.03;;;2.97;;
15681;SDS011;7941;50.966;6.978;2022-07-19T03:39:21;5.27;;;2.77;;
15681;SDS011;7941;50.966;6.978;2022-07-19T03:41:47;6.17;;;2.90;;
15681;SDS011;7941;50.966;6.978;2022-07-19T03:44:13;3.27;;;3.03;;
15681;SDS011;7941;50.966;6.978;2022-07-19T03:46:39;5.27;;;3.00;;
15681;SDS011;7941;50.966;6.978;2022-07-19T03:49:06;5.37;;;3.33;;
15681;SDS011;7941;50.966;6.978;2022-07-19T03:51:32;6.33;;;3.33;;
15681;SDS011;7941;50.966;6.978;2022-07-19T03:53:58;5.77;;;3.60;;
15681;SDS011;7941;50.966;6.978;2022-07-19T03:56:24;5.17;;;3.07;;
15681;SDS011;7941;50.966;6.978;2022-07-19T03:58:50;4.13;;;2.77;;
15681;SDS011;7941;50.966;6.978;2022-07-19T04:01:16;3.80;;;3.40;;
15681;SDS011;7941;50.966;6.978;2022-07-19T04:03:43;4.00;;;2.80;;
15681;SDS011;7941;50.966;6.978;2022-07-19T04:06:10;5.63;;;3.27;;
15681;SDS011;7941;50.966;6.978;2022-07-19T04:08:36;3.37;;;3.07;;
15681;SDS011;7941;50.966;6.978;2022-07-19T04:11:03;4.77;;;3.17;;
15681;SDS011;7941;50.966;6.978;2022-07-19T04:13:31;3.97;;;2.97;;
15681;SDS011;7941;50.966;6.978;2022-07-19T04:15:57;4.90;;;2.73;;
15681;SDS011;7941;50.966;6.978;2022-07-19T04:18:23;6.73;;;3.43;;
15681;SDS011;7941;50.966;6.978;2022-07-19T04:20:50;6.63;;;3.30;;
15681;SDS011;7941;50.966;6.978;2022-07-19T04:23:16;5.73;;;3.10;;
15681;SDS011;7941;50.966;6.978;2022-07-19T04:25:43;3.70;;;3.40;;
15681;SDS011;7941;50.966;6.978;2022-07-19T04:28:09;5.70;;;3.20;;
15681;SDS011;7941;50.966;6.978;2022-07-19T04:30:35;6.67;;;3.53;;
15681;SDS011;7941;50.966;6.978;2022-07-19T04:33:01;5.57;;;3.37;;
15681;SDS011;7941;50.966;6.978;2022-07-19T04:35:28;4.73;;;3.17;;
15681;SDS011;7941;50.966;6.978;2022-07-19T04:37:54;5.23;;;3.13;;
15681;SDS011;7941;50.966;6.978;2022-07-19T04:40:21;3.90;;;3.33;;
15681;SDS011;7941;50.966;6.978;2022-07-19T04:42:47;3.60;;;3.03;;
15681;SDS011;7941;50.966;6.978;2022-07-19T04:45:13;3.70;;;3.40;;
15681;SDS011;7941;50.966;6.978;2022-07-19T04:47:39;4.97;;;3.10;;
15681;SDS011;7941;50.966;6.978;2022-07-19T04:50:05;4.20;;;3.07;;
15681;SDS011;7941;50.966;6.978;2022-07-19T04:52:31;3.33;;;2.90;;
15681;SDS011;7941;50.966;6.978;2022-07-19T04:54:57;4.67;;;2.73;;
15681;SDS011;7941;50.966;6.978;2022-07-19T04:57:23;3.87;;;2.90;;
15681;SDS011;7941;50.966;6.978;2022-07-19T04:59:50;5.33;;;3.33;;
15681;SDS011;7941;50.966;6.978;2022-07-19T05:02:16;3.43;;;2.80;;
15681;SDS011;7941;50.966;6.978;2022-07-19T05:04:42;4.87;;;2.90;;
15681;SDS011;7941;50.966;6.978;2022-07-19T05:07:08;4.33;;;3.03;;
15681;SDS011;7941;50.966;6.978;2022-07-19T05:09:34;5.37;;;3.10;;
15681;SDS011;7941;50.966;6.978;2022-07-19T05:12:01;5.53;;;2.97;;
15681;SDS011;7941;50.966;6.978;2022-07-19T05:14:30;4.27;;;3.10;;
15681;SDS011;7941;50.966;6.978;2022-07-19T05:16:57;4.33;;;3.13;;
15681;SDS011;7941;50.966;6.978;2022-07-19T05:19:23;6.30;;;3.07;;
15681;SDS011;7941;50.966;6.978;2022-07-19T05:21:49;7.17;;;2.83;;
15681;SDS011;7941;50.966;6.978;2022-07-19T05:24:16;4.77;;;2.70;;
15681;SDS011;7941;50.966;6.978;2022-07-19T05:26:42;3.00;;;2.37;;
15681;SDS011;7941;50.966;6.978;2022-07-19T05:29:08;5.40;;;2.90;;
15681;SDS011;7941;50.966;6.978;2022-07-19T05:31:34;5.23;;;3.30;;
15681;SDS011;7941;50.966;6.978;2022-07-19T05:34:01;4.30;;;3.30;;
15681;SDS011;7941;50.966;6.978;2022-07-19T05:36:27;6.50;;;2.83;;
15681;SDS011;7941;50.966;6.978;2022-07-19T05:38:53;4.10;;;2.80;;
15681;SDS011;7941;50.966;6.978;2022-07-19T05:41:20;7.47;;;2.77;;
15681;SDS011;7941;50.966;6.978;2022-07-19T05:43:50;6.27;;;3.43;;
15681;SDS011;7941;50.966;6.978;2022-07-19T05:46:16;6.70;;;2.90;;
15681;SDS011;7941;50.966;6.978;2022-07-19T05:48:42;4.77;;;3.10;;
15681;SDS011;7941;50.966;6.978;2022-07-19T05:51:08;6.47;;;2.93;;
15681;SDS011;7941;50.966;6.978;2022-07-19T05:53:35;5.20;;;2.93;;
15681;SDS011;7941;50.966;6.978;2022-07-19T05:56:02;4.77;;;2.67;;
15681;SDS011;7941;50.966;6.978;2022-07-19T05:58:28;3.53;;;2.67;;
15681;SDS011;7941;50.966;6.978;2022-07-19T06:00:55;2.93;;;2.63;;
15681;SDS011;7941;50.966;6.978;2022-07-19T06:03:40;5.10;;;3.00;;
15681;SDS011;7941;50.966;6.978;2022-07-19T06:06:06;5.07;;;2.70;;
15681;SDS011;7941;50.966;6.978;2022-07-19T06:08:32;5.43;;;2.70;;
15681;SDS011;7941;50.966;6.978;2022-07-19T06:10:58;5.53;;;2.63;;
15681;SDS011;7941;50.966;6.978;2022-07-19T06:13:24;3.77;;;2.83;;
15681;SDS011;7941;50.966;6.978;2022-07-19T06:15:51;4.93;;;3.13;;
15681;SDS011;7941;50.966;6.978;2022-07-19T06:18:17;7.17;;;3.37;;
15681;SDS011;7941;50.966;6.978;2022-07-19T06:20:44;6.83;;;3.27;;
15681;SDS011;7941;50.966;6.978;2022-07-19T06:23:10;4.37;;;2.70;;
15681;SDS011;7941;50.966;6.978;2022-07-19T06:25:36;5.03;;;2.67;;
15681;SDS011;7941;50.966;6.978;2022-07-19T06:28:02;5.83;;;2.90;;
15681;SDS011;7941;50.966;6.978;2022-07-19T06:30:29;5.17;;;2.77;;
15681;SDS011;7941;50.966;6.978;2022-07-19T06:32:55;9.07;;;3.50;;
15681;SDS011;7941;50.966;6.978;2022-07-19T06:35:21;4.27;;;2.83;;
15681;SDS011;7941;50.966;6.978;2022-07-19T06:37:47;6.13;;;4.70;;
15681;SDS011;7941;50.966;6.978;2022-07-19T06:40:13;6.83;;;3.30;;
15681;SDS011;7941;50.966;6.978;2022-07-19T06:42:39;6.70;;;3.23;;
15681;SDS011;7941;50.966;6.978;2022-07-19T06:45:05;7.00;;;3.47;;
15681;SDS011;7941;50.966;6.978;2022-07-19T06:47:32;6.27;;;3.30;;
15681;SDS011;7941;50.966;6.978;2022-07-19T06:49:58;8.87;;;3.20;;
15681;SDS011;7941;50.966;6.978;2022-07-19T06:52:25;7.97;;;3.27;;
15681;SDS011;7941;50.966;6.978;2022-07-19T06:54:51;12.77;;;3.33;;
15681;SDS011;7941;50.966;6.978;2022-07-19T06:57:17;7.63;;;3.20;;
15681;SDS011;7941;50.966;6.978;2022-07-19T06:59:43;5.57;;;3.30;;
15681;SDS011;7941;50.966;6.978;2022-07-19T07:02:09;5.47;;;2.77;;
15681;SDS011;7941;50.966;6.978;2022-07-19T07:04:35;7.27;;;3.60;;
15681;SDS011;7941;50.966;6.978;2022-07-19T07:07:01;6.53;;;3.50;;
15681;SDS011;7941;50.966;6.978;2022-07-19T07:09:28;8.30;;;3.40;;
15681;SDS011;7941;50.966;6.978;2022-07-19T07:11:54;7.00;;;2.97;;
15681;SDS011;7941;50.966;6.978;2022-07-19T07:14:20;5.93;;;3.80;;
15681;SDS011;7941;50.966;6.978;2022-07-19T07:16:46;13.17;;;5.17;;
15681;SDS011;7941;50.966;6.978;2022-07-19T07:19:13;5.80;;;3.77;;
15681;SDS011;7941;50.966;6.978;2022-07-19T07:21:39;5.47;;;3.33;;
15681;SDS011;7941;50.966;6.978;2022-07-19T07:24:05;8.97;;;3.13;;
15681;SDS011;7941;50.966;6.978;2022-07-19T07:26:31;6.50;;;3.03;;
15681;SDS011;7941;50.966;6.978;2022-07-19T07:28:58;7.77;;;6.97;;
15681;SDS011;7941;50.966;6.978;2022-07-19T07:31:25;4.77;;;3.70;;
15681;SDS011;7941;50.966;6.978;2022-07-19T07:33:51;7.33;;;5.40;;
15681;SDS011;7941;50.966;6.978;2022-07-19T07:36:17;8.10;;;3.30;;
15681;SDS011;7941;50.966;6.978;2022-07-19T07:38:43;9.17;;;3.30;;
15681;SDS011;7941;50.966;6.978;2022-07-19T07:41:09;5.40;;;3.30;;
15681;SDS011;7941;50.966;6.978;2022-07-19T07:43:36;6.57;;;3.47;;
15681;SDS011;7941;50.966;6.978;2022-07-19T07:46:02;6.00;;;3.20;;
15681;SDS011;7941;50.966;6.978;2022-07-19T07:48:28;10.13;;;6.93;;
15681;SDS011;7941;50.966;6.978;2022-07-19T07:50:54;6.57;;;4.00;;
15681;SDS011;7941;50.966;6.978;2022-07-19T07:53:21;11.00;;;4.13;;
15681;SDS011;7941;50.966;6.978;2022-07-19T07:55:47;5.77;;;3.50;;
15681;SDS011;7941;50.966;6.978;2022-07-19T07:58:13;7.20;;;3.47;;
15681;SDS011;7941;50.966;6.978;2022-07-19T08:00:40;6.23;;;3.30;;
15681;SDS011;7941;50.966;6.978;2022-07-19T08:03:06;12.23;;;4.33;;
15681;SDS011;7941;50.966;6.978;2022-07-19T08:05:32;7.77;;;3.37;;
15681;SDS011;7941;50.966;6.978;2022-07-19T08:07:59;5.50;;;3.80;;
15681;SDS011;7941;50.966;6.978;2022-07-19T08:10:27;7.57;;;2.77;;
15681;SDS011;7941;50.966;6.978;2022-07-19T08:12:53;6.37;;;3.57;;
15681;SDS011;7941;50.966;6.978;2022-07-19T08:15:20;7.47;;;3.30;;
15681;SDS011;7941;50.966;6.978;2022-07-19T08:17:46;9.90;;;3.40;;
15681;SDS011;7941;50.966;6.978;2022-07-19T08:20:12;5.37;;;3.60;;
15681;SDS011;7941;50.966;6.978;2022-07-19T08:22:39;7.93;;;2.80;;
15681;SDS011;7941;50.966;6.978;2022-07-19T08:25:05;4.50;;;3.00;;
15681;SDS011;7941;50.966;6.978;2022-07-19T08:27:32;5.50;;;3.27;;
15681;SDS011;7941;50.966;6.978;2022-07-19T08:29:58;7.67;;;4.47;;
15681;SDS011;7941;50.966;6.978;2022-07-19T08:32:25;7.57;;;3.20;;
15681;SDS011;7941;50.966;6.978;2022-07-19T08:34:51;4.63;;;3.00;;
15681;SDS011;7941;50.966;6.978;2022-07-19T08:37:17;9.17;;;3.20;;
15681;SDS011;7941;50.966;6.978;2022-07-19T08:39:43;5.73;;;3.10;;
15681;SDS011;7941;50.966;6.978;2022-07-19T08:42:09;6.97;;;3.40;;
15681;SDS011;7941;50.966;6.978;2022-07-19T08:44:36;5.50;;;2.93;;
15681;SDS011;7941;50.966;6.978;2022-07-19T08:47:04;5.33;;;3.43;;
15681;SDS011;7941;50.966;6.978;2022-07-19T08:49:31;4.23;;;3.23;;
15681;SDS011;7941;50.966;6.978;2022-07-19T08:51:57;6.93;;;3.00;;
15681;SDS011;7941;50.966;6.978;2022-07-19T08:54:23;9.10;;;2.97;;
15681;SDS011;7941;50.966;6.978;2022-07-19T08:56:50;6.83;;;3.50;;
15681;SDS011;7941;50.966;6.978;2022-07-19T08:59:34;3.70;;;3.27;;
15681;SDS011;7941;50.966;6.978;2022-07-19T09:02:01;4.73;;;2.83;;
15681;SDS011;7941;50.966;6.978;2022-07-19T09:04:27;4.70;;;2.87;;
15681;SDS011;7941;50.966;6.978;2022-07-19T09:06:55;7.50;;;3.50;;
15681;SDS011;7941;50.966;6.978;2022-07-19T09:09:23;5.17;;;2.87;;
15681;SDS011;7941;50.966;6.978;2022-07-19T09:11:51;3.87;;;2.90;;
15681;SDS011;7941;50.966;6.978;2022-07-19T09:14:18;9.67;;;2.70;;
15681;SDS011;7941;50.966;6.978;2022-07-19T09:17:01;5.20;;;2.63;;
15681;SDS011;7941;50.966;6.978;2022-07-19T09:19:31;5.88;;;2.67;;
15681;SDS011;7941;50.966;6.978;2022-07-19T09:24:24;3.53;;;2.13;;
15681;SDS011;7941;50.966;6.978;2022-07-19T09:26:58;3.35;;;2.40;;
15681;SDS011;7941;50.966;6.978;2022-07-19T09:29:25;4.82;;;2.47;;
15681;SDS011;7941;50.966;6.978;2022-07-19T09:34:29;6.05;;;2.20;;
15681;SDS011;7941;50.966;6.978;2022-07-19T09:39:40;5.13;;;2.30;;
15681;SDS011;7941;50.966;6.978;2022-07-19T09:42:10;5.47;;;2.42;;
15681;SDS011;7941;50.966;6.978;2022-07-19T09:44:36;5.68;;;2.35;;
15681;SDS011;7941;50.966;6.978;2022-07-19T09:47:02;10.00;;;2.58;;
15681;SDS011;7941;50.966;6.978;2022-07-19T09:49:28;4.43;;;2.25;;
15681;SDS011;7941;50.966;6.978;2022-07-19T09:51:55;9.90;;;3.05;;
15681;SDS011;7941;50.966;6.978;2022-07-19T09:54:22;3.83;;;2.17;;
15681;SDS011;7941;50.966;6.978;2022-07-19T09:56:48;8.07;;;2.25;;
15681;SDS011;7941;50.966;6.978;2022-07-19T09:59:18;8.43;;;2.35;;
15681;SDS011;7941;50.966;6.978;2022-07-19T10:01:45;3.08;;;2.40;;
15681;SDS011;7941;50.966;6.978;2022-07-19T10:04:14;4.47;;;2.50;;
15681;SDS011;7941;50.966;6.978;2022-07-19T10:06:41;6.53;;;2.40;;
15681;SDS011;7941;50.966;6.978;2022-07-19T10:09:08;4.90;;;2.30;;
15681;SDS011;7941;50.966;6.978;2022-07-19T10:11:35;6.13;;;2.40;;
15681;SDS011;7941;50.966;6.978;2022-07-19T10:14:02;5.40;;;2.72;;
15681;SDS011;7941;50.966;6.978;2022-07-19T10:22:00;4.85;;;2.45;;
15681;SDS011;7941;50.966;6.978;2022-07-19T10:32:35;6.15;;;2.35;;
15681;SDS011;7941;50.966;6.978;2022-07-19T10:37:44;4.18;;;2.05;;
15681;SDS011;7941;50.966;6.978;2022-07-19T10:40:10;3.22;;;2.45;;
15681;SDS011;7941;50.966;6.978;2022-07-19T10:42:37;3.22;;;2.13;;
15681;SDS011;7941;50.966;6.978;2022-07-19T10:45:23;3.42;;;1.92;;
15681;SDS011;7941;50.966;6.978;2022-07-19T10:50:15;5.15;;;2.30;;
15681;SDS011;7941;50.966;6.978;2022-07-19T10:52:46;4.07;;;2.13;;
15681;SDS011;7941;50.966;6.978;2022-07-19T10:57:43;10.55;;;2.28;;
15681;SDS011;7941;50.966;6.978;2022-07-19T11:02:41;3.75;;;2.13;;
15681;SDS011;7941;50.966;6.978;2022-07-19T11:05:07;4.13;;;2.00;;
15681;SDS011;7941;50.966;6.978;2022-07-19T11:07:33;5.97;;;1.83;;
15681;SDS011;7941;50.966;6.978;2022-07-19T11:10:00;4.10;;;1.98;;
15681;SDS011;7941;50.966;6.978;2022-07-19T11:12:29;3.65;;;1.88;;
15681;SDS011;7941;50.966;6.978;2022-07-19T11:14:56;3.67;;;1.92;;
15681;SDS011;7941;50.966;6.978;2022-07-19T11:17:22;6.03;;;3.05;;
15681;SDS011;7941;50.966;6.978;2022-07-19T11:22:47;5.85;;;3.05;;
15681;SDS011;7941;50.966;6.978;2022-07-19T11:25:14;5.93;;;2.38;;
15681;SDS011;7941;50.966;6.978;2022-07-19T11:27:44;3.95;;;2.25;;
15681;SDS011;7941;50.966;6.978;2022-07-19T11:30:11;4.07;;;2.20;;
15681;SDS011;7941;50.966;6.978;2022-07-19T11:32:38;2.90;;;1.65;;
15681;SDS011;7941;50.966;6.978;2022-07-19T11:35:07;5.57;;;3.85;;
15681;SDS011;7941;50.966;6.978;2022-07-19T11:37:35;5.63;;;2.70;;
15681;SDS011;7941;50.966;6.978;2022-07-19T11:40:02;5.45;;;2.70;;
15681;SDS011;7941;50.966;6.978;2022-07-19T11:47:36;4.40;;;2.30;;
15681;SDS011;7941;50.966;6.978;2022-07-19T11:50:06;7.15;;;2.83;;
15681;SDS011;7941;50.966;6.978;2022-07-19T11:52:42;8.80;;;3.30;;
15681;SDS011;7941;50.966;6.978;2022-07-19T11:55:08;3.30;;;2.50;;
15681;SDS011;7941;50.966;6.978;2022-07-19T11:57:35;6.22;;;2.10;;
15681;SDS011;7941;50.966;6.978;2022-07-19T12:00:02;7.80;;;5.00;;
15681;SDS011;7941;50.966;6.978;2022-07-19T12:02:28;6.20;;;5.60;;
15681;SDS011;7941;50.966;6.978;2022-07-19T12:04:54;7.32;;;4.72;;
15681;SDS011;7941;50.966;6.978;2022-07-19T12:07:21;4.50;;;2.60;;
15681;SDS011;7941;50.966;6.978;2022-07-19T12:09:47;8.57;;;5.10;;
15681;SDS011;7941;50.966;6.978;2022-07-19T12:12:14;5.53;;;2.67;;
15681;SDS011;7941;50.966;6.978;2022-07-19T12:14:41;6.43;;;2.28;;
15681;SDS011;7941;50.966;6.978;2022-07-19T12:17:14;3.63;;;2.20;;
15681;SDS011;7941;50.966;6.978;2022-07-19T12:19:45;4.75;;;2.10;;
15681;SDS011;7941;50.966;6.978;2022-07-19T12:24:56;3.00;;;2.30;;
15681;SDS011;7941;50.966;6.978;2022-07-19T12:27:22;4.45;;;1.90;;
15681;SDS011;7941;50.966;6.978;2022-07-19T12:29:53;3.63;;;2.03;;
15681;SDS011;7941;50.966;6.978;2022-07-19T12:35:00;2.35;;;2.15;;
15681;SDS011;7941;50.966;6.978;2022-07-19T12:42:26;8.60;;;2.40;;
15681;SDS011;7941;50.966;6.978;2022-07-19T12:44:52;4.05;;;2.17;;
15681;SDS011;7941;50.966;6.978;2022-07-19T12:47:18;4.50;;;2.25;;
15681;SDS011;7941;50.966;6.978;2022-07-19T12:49:45;4.90;;;2.50;;
15681;SDS011;7941;50.966;6.978;2022-07-19T12:52:13;5.00;;;2.20;;
15681;SDS011;7941;50.966;6.978;2022-07-19T12:54:39;2.58;;;1.95;;
15681;SDS011;7941;50.966;6.978;2022-07-19T12:57:05;2.97;;;2.30;;
15681;SDS011;7941;50.966;6.978;2022-07-19T12:59:31;2.60;;;2.22;;
15681;SDS011;7941;50.966;6.978;2022-07-19T13:02:09;5.47;;;2.40;;
15681;SDS011;7941;50.966;6.978;2022-07-19T13:04:36;5.22;;;2.22;;
15681;SDS011;7941;50.966;6.978;2022-07-19T13:07:03;4.00;;;2.35;;
15681;SDS011;7941;50.966;6.978;2022-07-19T13:09:29;4.63;;;2.20;;
15681;SDS011;7941;50.966;6.978;2022-07-19T13:11:56;5.60;;;1.95;;
15681;SDS011;7941;50.966;6.978;2022-07-19T13:14:22;4.90;;;1.90;;
15681;SDS011;7941;50.966;6.978;2022-07-19T13:16:49;3.70;;;2.38;;
15681;SDS011;7941;50.966;6.978;2022-07-19T13:19:15;7.35;;;2.47;;
15681;SDS011;7941;50.966;6.978;2022-07-19T13:21:42;5.72;;;2.28;;
15681;SDS011;7941;50.966;6.978;2022-07-19T13:24:08;2.13;;;1.85;;
15681;SDS011;7941;50.966;6.978;2022-07-19T13:26:34;2.58;;;1.90;;
15681;SDS011;7941;50.966;6.978;2022-07-19T13:29:01;4.18;;;1.90;;
15681;SDS011;7941;50.966;6.978;2022-07-19T13:31:27;6.90;;;5.55;;
15681;SDS011;7941;50.966;6.978;2022-07-19T13:33:53;2.67;;;2.42;;
15681;SDS011;7941;50.966;6.978;2022-07-19T13:36:19;5.63;;;2.53;;
15681;SDS011;7941;50.966;6.978;2022-07-19T13:38:45;2.38;;;2.17;;
15681;SDS011;7941;50.966;6.978;2022-07-19T13:41:13;2.47;;;1.98;;
15681;SDS011;7941;50.966;6.978;2022-07-19T13:43:39;4.80;;;2.72;;
15681;SDS011;7941;50.966;6.978;2022-07-19T13:46:05;2.25;;;1.73;;
15681;SDS011;7941;50.966;6.978;2022-07-19T13:48:31;3.17;;;1.95;;
15681;SDS011;7941;50.966;6.978;2022-07-19T13:50:58;3.45;;;2.00;;
15681;SDS011;7941;50.966;6.978;2022-07-19T13:53:24;3.97;;;1.80;;
15681;SDS011;7941;50.966;6.978;2022-07-19T13:55:50;3.67;;;2.15;;
15681;SDS011;7941;50.966;6.978;2022-07-19T13:58:16;5.30;;;1.80;;
15681;SDS011;7941;50.966;6.978;2022-07-19T14:00:43;2.55;;;1.85;;
15681;SDS011;7941;50.966;6.978;2022-07-19T14:03:13;2.50;;;1.70;;
15681;SDS011;7941;50.966;6.978;2022-07-19T14:05:40;3.17;;;2.10;;
15681;SDS011;7941;50.966;6.978;2022-07-19T14:08:06;6.90;;;2.00;;
15681;SDS011;7941;50.966;6.978;2022-07-19T14:10:32;4.30;;;2.13;;
15681;SDS011;7941;50.966;6.978;2022-07-19T14:12:58;3.72;;;2.10;;
15681;SDS011;7941;50.966;6.978;2022-07-19T14:15:24;2.58;;;2.10;;
15681;SDS011;7941;50.966;6.978;2022-07-19T14:17:50;4.18;;;1.90;;
15681;SDS011;7941;50.966;6.978;2022-07-19T14:20:16;2.40;;;2.03;;
15681;SDS011;7941;50.966;6.978;2022-07-19T14:22:42;4.95;;;1.98;;
15681;SDS011;7941;50.966;6.978;2022-07-19T14:25:08;4.13;;;2.30;;
15681;SDS011;7941;50.966;6.978;2022-07-19T14:27:35;3.78;;;2.17;;
15681;SDS011;7941;50.966;6.978;2022-07-19T14:30:01;2.90;;;1.75;;
15681;SDS011;7941;50.966;6.978;2022-07-19T14:32:27;5.68;;;2.22;;
15681;SDS011;7941;50.966;6.978;2022-07-19T14:34:53;3.15;;;2.10;;
15681;SDS011;7941;50.966;6.978;2022-07-19T14:37:19;6.65;;;2.17;;
15681;SDS011;7941;50.966;6.978;2022-07-19T14:39:46;5.30;;;2.50;;
15681;SDS011;7941;50.966;6.978;2022-07-19T14:42:12;4.22;;;2.50;;
15681;SDS011;7941;50.966;6.978;2022-07-19T14:44:38;4.28;;;2.80;;
15681;SDS011;7941;50.966;6.978;2022-07-19T14:47:04;5.05;;;2.33;;
15681;SDS011;7941;50.966;6.978;2022-07-19T14:49:33;4.97;;;2.30;;
15681;SDS011;7941;50.966;6.978;2022-07-19T14:51:59;4.75;;;2.03;;
15681;SDS011;7941;50.966;6.978;2022-07-19T14:54:26;3.70;;;2.40;;
15681;SDS011;7941;50.966;6.978;2022-07-19T14:56:52;5.15;;;2.42;;
15681;SDS011;7941;50.966;6.978;2022-07-19T14:59:19;4.05;;;2.35;;
15681;SDS011;7941;50.966;6.978;2022-07-19T15:01:45;3.17;;;2.15;;
15681;SDS011;7941;50.966;6.978;2022-07-19T15:04:12;4.75;;;2.47;;
15681;SDS011;7941;50.966;6.978;2022-07-19T15:06:38;3.45;;;2.38;;
15681;SDS011;7941;50.966;6.978;2022-07-19T15:09:04;4.93;;;1.98;;
15681;SDS011;7941;50.966;6.978;2022-07-19T15:11:30;6.00;;;2.15;;
15681;SDS011;7941;50.966;6.978;2022-07-19T15:14:00;6.38;;;2.70;;
15681;SDS011;7941;50.966;6.978;2022-07-19T15:16:27;4.88;;;2.30;;
15681;SDS011;7941;50.966;6.978;2022-07-19T15:18:53;5.28;;;2.42;;
15681;SDS011;7941;50.966;6.978;2022-07-19T15:21:20;3.72;;;2.65;;
15681;SDS011;7941;50.966;6.978;2022-07-19T15:23:46;2.78;;;2.20;;
15681;SDS011;7941;50.966;6.978;2022-07-19T15:26:12;4.10;;;2.05;;
15681;SDS011;7941;50.966;6.978;2022-07-19T15:28:38;4.10;;;2.00;;
15681;SDS011;7941;50.966;6.978;2022-07-19T15:31:05;5.30;;;2.00;;
15681;SDS011;7941;50.966;6.978;2022-07-19T15:33:31;4.75;;;2.38;;
15681;SDS011;7941;50.966;6.978;2022-07-19T15:35:58;5.88;;;2.40;;
15681;SDS011;7941;50.966;6.978;2022-07-19T15:38:25;4.63;;;2.13;;
15681;SDS011;7941;50.966;6.978;2022-07-19T15:40:52;3.70;;;2.10;;
15681;SDS011;7941;50.966;6.978;2022-07-19T15:43:18;4.57;;;2.08;;
15681;SDS011;7941;50.966;6.978;2022-07-19T15:45:45;3.80;;;1.85;;
15681;SDS011;7941;50.966;6.978;2022-07-19T15:48:11;4.70;;;2.13;;